createdAt,value
2023-02-24T00:01:39.519Z,1.85
2023-02-24T00:04:11.558Z,0.00
2023-02-24T00:06:40.772Z,1.27
2023-02-24T00:09:12.622Z,0.00
2023-02-24T00:11:53.013Z,0.28
2023-02-24T00:14:19.898Z,0.00
2023-02-24T00:16:47.224Z,0.10
2023-02-24T00:19:19.356Z,0.22
2023-02-24T00:21:46.470Z,0.00
2023-02-24T00:24:13.697Z,0.55
2023-02-24T00:26:40.815Z,1.48
2023-02-24T00:29:10.662Z,0.50
2023-02-24T00:31:39.663Z,0.13
2023-02-24T00:34:07.085Z,0.30
2023-02-24T00:36:34.528Z,0.10
2023-02-24T00:39:09.308Z,1.30
2023-02-24T00:41:43.346Z,0.30
2023-02-24T00:44:14.671Z,0.93
2023-02-24T00:46:44.763Z,0.03
2023-02-24T00:49:17.395Z,1.08
2023-02-24T00:51:49.115Z,0.20
2023-02-24T00:54:17.471Z,0.50
2023-02-24T00:56:46.639Z,0.00
2023-02-24T01:01:45.350Z,0.05
2023-02-24T01:04:13.050Z,0.13
2023-02-24T01:06:45.133Z,0.00
2023-02-24T01:09:14.072Z,0.00
2023-02-24T01:12:00.259Z,1.35
2023-02-24T01:14:30.156Z,1.05
2023-02-24T01:16:57.597Z,0.00
2023-02-24T01:19:30.535Z,0.00
2023-02-24T01:22:08.139Z,0.93
2023-02-24T01:24:39.586Z,0.40
2023-02-24T01:27:06.909Z,0.30
2023-02-24T01:29:39.477Z,0.50
2023-02-24T01:32:12.961Z,0.00
2023-02-24T01:34:42.678Z,0.25
2023-02-24T01:37:10.011Z,0.10
2023-02-24T01:39:37.261Z,0.20
2023-02-24T01:42:06.192Z,0.17
2023-02-24T01:44:33.317Z,0.28
2023-02-24T01:47:03.849Z,0.88
2023-02-24T01:52:15.060Z,0.90
2023-02-24T01:54:45.376Z,0.08
2023-02-24T01:57:16.663Z,0.00
2023-02-24T01:59:44.860Z,0.10
2023-02-24T02:02:12.150Z,0.43
2023-02-24T02:04:55.113Z,3.10
2023-02-24T02:07:23.952Z,0.88
2023-02-24T02:09:54.661Z,0.30
2023-02-24T02:12:22.890Z,0.20
2023-02-24T02:14:52.469Z,0.20
2023-02-24T02:18:00.252Z,0.10
2023-02-24T02:20:47.923Z,0.28
2023-02-24T02:23:28.772Z,1.73
2023-02-24T02:25:58.601Z,1.20
2023-02-24T02:28:41.960Z,0.00
2023-02-24T02:31:25.896Z,1.45
2023-02-24T02:34:14.605Z,1.55
2023-02-24T02:36:47.759Z,0.17
2023-02-24T02:39:39.448Z,0.32
2023-02-24T02:42:14.330Z,0.43
2023-02-24T02:44:55.976Z,0.00
2023-02-24T02:47:35.160Z,0.77
2023-02-24T02:50:13.078Z,0.90
2023-02-24T02:52:58.449Z,0.70
2023-02-24T02:55:46.453Z,1.13
2023-02-24T02:58:21.499Z,0.63
2023-02-24T03:00:59.073Z,0.60
2023-02-24T03:03:28.005Z,0.00
2023-02-24T03:06:00.772Z,0.20
2023-02-24T03:08:29.664Z,0.10
2023-02-24T03:13:30.384Z,0.10
2023-02-24T03:16:02.395Z,0.00
2023-02-24T03:18:59.695Z,0.45
2023-02-24T03:21:37.248Z,0.10
2023-02-24T03:24:06.397Z,0.38
2023-02-24T03:26:42.096Z,0.20
2023-02-24T03:29:19.059Z,0.88
2023-02-24T03:31:52.181Z,0.13
2023-02-24T03:34:24.141Z,0.30
2023-02-24T03:36:51.075Z,0.20
2023-02-24T03:39:18.084Z,0.45
2023-02-24T03:42:18.037Z,0.47
2023-02-24T03:44:45.639Z,1.88
2023-02-24T03:47:17.405Z,0.80
2023-02-24T03:49:44.253Z,0.10
2023-02-24T03:52:32.916Z,0.45
2023-02-24T03:55:44.660Z,0.40
2023-02-24T03:58:18.945Z,0.45
2023-02-24T04:00:58.803Z,0.65
2023-02-24T04:03:43.561Z,0.10
2023-02-24T04:06:46.641Z,0.30
2023-02-24T04:09:34.020Z,0.55
2023-02-24T04:12:18.825Z,0.25
2023-02-24T04:14:52.240Z,0.28
2023-02-24T04:17:25.132Z,0.00
2023-02-24T04:19:56.470Z,1.83
2023-02-24T04:22:25.164Z,0.20
2023-02-24T04:24:56.656Z,0.65
2023-02-24T04:27:24.250Z,1.00
2023-02-24T04:29:56.555Z,2.30
2023-02-24T04:32:27.942Z,0.20
2023-02-24T04:35:02.035Z,1.23
2023-02-24T04:37:33.851Z,0.88
2023-02-24T04:40:02.013Z,0.30
2023-02-24T04:42:29.184Z,0.00
2023-02-24T04:44:58.679Z,0.22
2023-02-24T04:47:28.829Z,0.13
2023-02-24T04:49:55.631Z,0.17
2023-02-24T04:52:22.557Z,0.10
2023-02-24T04:54:54.697Z,0.32
2023-02-24T04:57:22.756Z,0.63
2023-02-24T04:59:49.447Z,0.03
2023-02-24T05:02:18.928Z,0.10
2023-02-24T05:04:49.578Z,1.27
2023-02-24T05:07:16.426Z,0.47
2023-02-24T05:09:43.125Z,0.10
2023-02-24T05:12:09.840Z,0.00
2023-02-24T05:14:36.554Z,0.00
2023-02-24T05:17:03.381Z,1.17
2023-02-24T05:19:48.666Z,0.57
2023-02-24T05:22:17.615Z,1.45
2023-02-24T05:24:44.440Z,3.20
2023-02-24T05:27:11.181Z,0.80
2023-02-24T05:29:37.841Z,0.52
2023-02-24T05:32:05.710Z,0.00
2023-02-24T05:34:33.073Z,0.00
2023-02-24T05:37:01.886Z,0.20
2023-02-24T05:39:28.703Z,0.00
2023-02-24T05:41:57.015Z,0.10
2023-02-24T05:44:26.210Z,0.10
2023-02-24T05:46:58.454Z,0.08
2023-02-24T05:49:29.504Z,0.10
2023-02-24T05:52:00.865Z,0.00
2023-02-24T05:54:33.821Z,0.00
2023-02-24T05:57:06.258Z,0.10
2023-02-24T05:59:33.902Z,4.05
2023-02-24T06:02:07.297Z,0.15
2023-02-24T06:04:45.881Z,0.10
2023-02-24T06:07:34.608Z,0.40
2023-02-24T06:10:04.870Z,0.45
2023-02-24T06:12:34.227Z,0.10
2023-02-24T06:15:01.637Z,0.25
2023-02-24T06:17:29.123Z,0.93
2023-02-24T06:19:56.113Z,0.93
2023-02-24T06:22:24.786Z,1.20
2023-02-24T06:24:54.132Z,0.30
2023-02-24T06:27:24.855Z,0.10
2023-02-24T06:29:54.067Z,1.23
2023-02-24T06:32:26.231Z,148.18
2023-02-24T06:34:53.969Z,125.47
2023-02-24T06:37:22.891Z,121.70
2023-02-24T06:39:50.018Z,110.88
2023-02-24T06:42:16.856Z,178.68
2023-02-24T06:44:43.716Z,137.38
2023-02-24T06:47:14.893Z,123.68
2023-02-24T06:49:44.693Z,153.02
2023-02-24T06:52:12.022Z,110.88
2023-02-24T06:54:38.816Z,107.07
2023-02-24T06:57:05.615Z,134.50
2023-02-24T06:59:33.037Z,97.80
2023-02-24T07:02:02.170Z,109.10
2023-02-24T07:04:31.244Z,107.75
2023-02-24T07:07:03.415Z,112.88
2023-02-24T07:09:31.081Z,125.85
2023-02-24T07:11:58.899Z,75.38
2023-02-24T07:14:27.685Z,90.80
2023-02-24T07:16:54.987Z,57.80
2023-02-24T07:19:25.076Z,63.92
2023-02-24T07:22:00.144Z,62.47
2023-02-24T07:24:36.538Z,80.47
2023-02-24T07:27:06.855Z,8.48
2023-02-24T07:29:34.944Z,34.90
2023-02-24T07:32:03.710Z,38.95
2023-02-24T07:34:30.867Z,9.05
2023-02-24T07:36:58.014Z,11.57
2023-02-24T07:39:25.689Z,6.28
2023-02-24T07:41:55.236Z,16.15
2023-02-24T07:44:24.254Z,19.92
2023-02-24T07:46:51.706Z,26.60
2023-02-24T07:49:21.455Z,13.45
2023-02-24T07:51:53.075Z,21.15
2023-02-24T07:54:21.507Z,31.50
2023-02-24T07:56:56.579Z,22.67
2023-02-24T07:59:32.410Z,6.78
2023-02-24T08:02:00.629Z,50.72
2023-02-24T08:04:30.226Z,42.40
2023-02-24T08:06:59.177Z,14.87
2023-02-24T08:09:46.312Z,10.88
2023-02-24T08:12:21.692Z,11.02
2023-02-24T08:14:51.633Z,16.60
2023-02-24T08:17:26.593Z,21.20
2023-02-24T08:20:14.826Z,24.27
2023-02-24T08:22:52.278Z,16.40
2023-02-24T08:25:22.685Z,14.10
2023-02-24T08:28:07.463Z,19.40
2023-02-24T08:30:40.288Z,13.93
2023-02-24T08:33:10.383Z,11.25
2023-02-24T08:35:44.620Z,11.77
2023-02-24T08:38:15.827Z,9.13
2023-02-24T08:40:51.798Z,18.65
2023-02-24T08:43:25.143Z,13.98
2023-02-24T08:46:00.973Z,19.95
2023-02-24T08:48:37.503Z,11.02
2023-02-24T08:51:22.466Z,11.40
2023-02-24T08:53:55.526Z,18.25
2023-02-24T08:56:25.380Z,12.63
2023-02-24T08:59:05.693Z,16.08
2023-02-24T09:01:40.240Z,19.90
2023-02-24T09:04:12.492Z,18.35
2023-02-24T09:06:45.369Z,14.63
2023-02-24T09:09:17.660Z,20.17
2023-02-24T09:11:46.787Z,14.05
2023-02-24T09:14:27.470Z,13.30
2023-02-24T09:17:11.785Z,18.38
2023-02-24T09:19:50.003Z,17.80
2023-02-24T09:22:29.831Z,11.45
2023-02-24T09:25:18.255Z,14.60
2023-02-24T09:27:56.101Z,11.82
2023-02-24T09:30:36.437Z,12.30
2023-02-24T09:33:21.764Z,9.63
2023-02-24T09:36:20.329Z,11.52
2023-02-24T09:39:01.922Z,14.75
2023-02-24T09:41:32.726Z,13.30
2023-02-24T09:44:33.651Z,11.02
2023-02-24T09:47:51.270Z,15.32
2023-02-24T09:50:44.236Z,8.90
2023-02-24T09:53:19.702Z,14.15
2023-02-24T09:56:05.643Z,14.60
2023-02-24T09:58:48.116Z,13.15
2023-02-24T10:01:43.348Z,11.43
2023-02-24T10:04:31.822Z,11.18
2023-02-24T10:07:11.540Z,14.05
2023-02-24T10:09:42.708Z,13.40
2023-02-24T10:12:17.216Z,12.95
2023-02-24T10:15:15.067Z,13.38
2023-02-24T10:17:47.276Z,19.05
2023-02-24T10:20:31.337Z,10.95
2023-02-24T10:23:09.766Z,11.60
2023-02-24T10:25:54.309Z,10.63
2023-02-24T10:28:35.784Z,11.82
2023-02-24T10:31:10.607Z,16.20
2023-02-24T10:33:45.260Z,17.85
2023-02-24T10:36:17.992Z,25.85
2023-02-24T10:38:45.795Z,15.27
2023-02-24T10:41:14.164Z,19.17
2023-02-24T10:43:47.288Z,15.63
2023-02-24T10:46:41.085Z,13.52
2023-02-24T10:49:11.850Z,10.40
2023-02-24T10:51:41.794Z,11.13
2023-02-24T10:54:33.315Z,9.50
2023-02-24T10:57:15.550Z,14.60
2023-02-24T11:00:31.262Z,37.65
2023-02-24T11:03:08.436Z,13.40
2023-02-24T11:06:08.400Z,13.32
2023-02-24T11:08:39.930Z,21.13
2023-02-24T11:11:26.058Z,11.73
2023-02-24T11:14:12.895Z,15.05
2023-02-24T11:17:11.030Z,9.68
2023-02-24T11:19:59.435Z,9.13
2023-02-24T11:22:35.771Z,15.68
2023-02-24T11:25:12.659Z,12.43
2023-02-24T11:27:42.384Z,11.10
2023-02-24T11:30:24.369Z,14.55
2023-02-24T11:32:58.644Z,14.35
2023-02-24T11:35:30.222Z,14.05
2023-02-24T11:38:17.789Z,17.73
2023-02-24T11:40:48.931Z,19.77
2023-02-24T11:43:18.597Z,13.80
2023-02-24T11:46:07.782Z,19.58
2023-02-24T11:48:39.247Z,15.13
2023-02-24T11:51:14.316Z,16.63
2023-02-24T11:53:51.528Z,13.73
2023-02-24T11:56:28.566Z,19.42
2023-02-24T11:59:08.097Z,18.83
2023-02-24T12:02:01.367Z,16.13
2023-02-24T12:04:28.387Z,13.30
2023-02-24T12:07:13.038Z,12.65
2023-02-24T12:10:20.129Z,11.95
2023-02-24T12:13:02.049Z,14.70
2023-02-24T12:15:34.207Z,11.18
2023-02-24T12:18:07.539Z,9.48
2023-02-24T12:20:51.232Z,10.07
2023-02-24T12:23:24.657Z,9.27
2023-02-24T12:26:14.509Z,10.57
2023-02-24T12:29:16.295Z,16.47
2023-02-24T12:32:16.890Z,10.05
2023-02-24T12:34:58.769Z,9.43
2023-02-24T12:37:37.538Z,10.95
2023-02-24T12:40:31.101Z,15.25
2023-02-24T12:43:03.388Z,10.43
2023-02-24T12:45:50.526Z,10.30
2023-02-24T12:48:50.425Z,12.02
2023-02-24T12:51:33.674Z,14.43
2023-02-24T12:54:22.498Z,12.88
2023-02-24T12:56:59.049Z,9.35
2023-02-24T12:59:29.868Z,10.80
2023-02-24T13:02:00.328Z,12.30
2023-02-24T13:04:37.408Z,14.43
2023-02-24T13:07:37.003Z,12.30
2023-02-24T13:10:03.757Z,12.60
2023-02-24T13:12:50.590Z,14.50
2023-02-24T13:15:31.414Z,14.13
2023-02-24T13:17:58.817Z,10.30
2023-02-24T13:20:37.287Z,14.05
2023-02-24T13:23:19.234Z,14.68
2023-02-24T13:25:53.368Z,12.13
2023-02-24T13:28:25.199Z,12.68
2023-02-24T13:31:03.884Z,13.20
2023-02-24T13:33:39.156Z,16.38
2023-02-24T13:36:12.926Z,11.60
2023-02-24T13:38:42.790Z,13.40
2023-02-24T13:41:26.189Z,14.48
2023-02-24T13:43:59.058Z,23.45
2023-02-24T13:46:28.985Z,19.30
2023-02-24T13:49:10.539Z,14.02
2023-02-24T13:51:49.380Z,21.58
2023-02-24T13:54:40.734Z,27.02
2023-02-24T13:57:42.079Z,20.73
2023-02-24T14:00:28.812Z,19.23
2023-02-24T14:02:56.041Z,19.30
2023-02-24T14:05:34.550Z,19.23
2023-02-24T14:08:02.262Z,15.57
2023-02-24T14:10:31.817Z,16.95
2023-02-24T14:13:14.172Z,21.35
2023-02-24T14:15:43.278Z,20.25
2023-02-24T14:18:28.078Z,23.10
2023-02-24T14:20:56.484Z,23.52
2023-02-24T14:23:34.431Z,22.90
2023-02-24T14:26:08.785Z,23.52
2023-02-24T14:28:38.203Z,21.52
2023-02-24T14:31:08.830Z,21.55
2023-02-24T14:33:37.464Z,25.42
2023-02-24T14:36:05.566Z,23.42
2023-02-24T14:38:40.353Z,19.63
2023-02-24T14:41:30.032Z,24.23
2023-02-24T14:43:57.006Z,21.90
2023-02-24T14:46:24.214Z,20.40
2023-02-24T14:48:56.118Z,22.33
2023-02-24T14:51:31.576Z,23.85
2023-02-24T14:54:03.067Z,18.80
2023-02-24T14:56:34.663Z,20.17
2023-02-24T14:59:07.649Z,31.05
2023-02-24T15:01:37.628Z,19.17
2023-02-24T15:04:23.778Z,21.98
2023-02-24T15:06:50.680Z,22.08
2023-02-24T15:09:21.095Z,21.15
2023-02-24T15:11:49.129Z,21.50
2023-02-24T15:14:27.466Z,20.05
2023-02-24T15:17:00.851Z,21.08
2023-02-24T15:19:38.849Z,15.70
2023-02-24T15:22:28.702Z,19.88
2023-02-24T15:25:13.134Z,26.67
2023-02-24T15:27:50.172Z,17.33
2023-02-24T15:30:26.260Z,17.60
2023-02-24T15:33:18.625Z,15.75
2023-02-24T15:36:09.453Z,15.82
2023-02-24T15:38:41.294Z,17.98
2023-02-24T15:41:08.906Z,20.67
2023-02-24T15:43:37.100Z,16.90
2023-02-24T15:46:25.663Z,16.73
2023-02-24T15:48:53.478Z,18.38
2023-02-24T15:51:29.497Z,17.17
2023-02-24T15:53:56.278Z,15.80
2023-02-24T15:56:23.268Z,15.98
2023-02-24T15:58:50.240Z,18.63
2023-02-24T16:01:16.950Z,13.45
2023-02-24T16:03:43.735Z,16.70
2023-02-24T16:06:18.911Z,17.77
2023-02-24T16:08:47.633Z,22.08
2023-02-24T16:11:17.473Z,87.90
2023-02-24T16:13:48.638Z,27.15
2023-02-24T16:16:15.395Z,19.75
2023-02-24T16:18:42.392Z,15.55
2023-02-24T16:21:09.225Z,17.98
2023-02-24T16:23:40.792Z,18.90
2023-02-24T16:26:19.438Z,16.92
2023-02-24T16:28:54.121Z,13.13
2023-02-24T16:31:22.336Z,16.33
2023-02-24T16:33:54.895Z,21.33
2023-02-24T16:36:23.935Z,20.23
2023-02-24T16:38:51.679Z,22.30
2023-02-24T16:41:18.994Z,21.58
2023-02-24T16:43:45.738Z,26.77
2023-02-24T16:46:15.908Z,21.30
2023-02-24T16:48:45.120Z,25.38
2023-02-24T16:51:12.134Z,24.88
2023-02-24T16:53:38.834Z,23.35
2023-02-24T16:56:07.472Z,23.23
2023-02-24T16:58:34.447Z,22.55
2023-02-24T17:01:02.898Z,17.20
2023-02-24T17:03:42.589Z,19.25
2023-02-24T17:06:09.533Z,20.95
2023-02-24T17:08:36.337Z,24.27
2023-02-24T17:11:03.637Z,22.85
2023-02-24T17:13:30.371Z,1.00
2023-02-24T17:15:57.438Z,2.03
2023-02-24T17:18:25.129Z,2.08
2023-02-24T17:20:53.238Z,1.77
2023-02-24T17:23:20.256Z,0.80
2023-02-24T17:25:51.694Z,3.63
2023-02-24T17:32:18.714Z,4.13
2023-02-24T17:34:45.766Z,0.20
2023-02-24T17:37:13.151Z,0.98
2023-02-24T17:39:40.614Z,0.30
2023-02-24T17:42:07.318Z,3.42
2023-02-24T17:44:34.316Z,0.25
2023-02-24T17:47:01.204Z,6.45
2023-02-24T17:49:29.424Z,0.35
2023-02-24T17:51:56.204Z,3.20
2023-02-24T17:54:23.010Z,24.92
2023-02-24T17:56:49.824Z,1.55
2023-02-24T17:59:16.611Z,1.83
2023-02-24T18:01:43.426Z,0.73
2023-02-24T18:04:14.764Z,1.35
2023-02-24T18:06:42.670Z,1.50
2023-02-24T18:09:10.015Z,1.67
2023-02-24T18:11:36.847Z,0.25
2023-02-24T18:14:03.746Z,0.25
2023-02-24T18:16:30.725Z,11.68
2023-02-24T18:18:57.453Z,1.23
2023-02-24T18:21:24.249Z,2.05
2023-02-24T18:23:50.963Z,2.00
2023-02-24T18:26:17.981Z,1.23
2023-02-24T18:28:44.735Z,3.25
2023-02-24T18:31:14.267Z,1.85
2023-02-24T18:33:41.399Z,0.77
2023-02-24T18:36:09.173Z,32.75
2023-02-24T18:38:36.041Z,0.73
2023-02-24T18:41:15.730Z,0.90
2023-02-24T18:43:43.347Z,1.90
2023-02-24T18:46:14.780Z,1.38
2023-02-24T18:48:44.480Z,7.80
2023-02-24T18:51:12.677Z,0.40
2023-02-24T18:53:39.842Z,2.75
2023-02-24T18:56:11.976Z,0.90
2023-02-24T18:58:40.751Z,1.88
2023-02-24T19:01:13.267Z,0.88
2023-02-24T19:03:40.565Z,0.25
2023-02-24T19:06:07.545Z,0.80
2023-02-24T19:08:34.814Z,2.65
2023-02-24T19:11:08.529Z,0.75
2023-02-24T19:13:35.493Z,1.30
2023-02-24T19:16:02.522Z,4.30
2023-02-24T19:18:29.375Z,1.95
2023-02-24T19:20:56.150Z,1.10
2023-02-24T19:23:23.027Z,5.82
2023-02-24T19:25:49.958Z,0.32
2023-02-24T19:28:16.877Z,2.33
2023-02-24T19:30:43.738Z,3.85
2023-02-24T19:33:10.825Z,2.80
2023-02-24T19:35:42.079Z,2.40
2023-02-24T19:38:19.736Z,1.55
2023-02-24T19:40:46.550Z,2.25
2023-02-24T19:43:13.578Z,5.88
2023-02-24T19:45:42.280Z,0.50
2023-02-24T19:48:11.107Z,2.77
2023-02-24T19:50:41.646Z,3.45
2023-02-24T19:53:08.512Z,2.40
2023-02-24T19:55:36.075Z,0.20
2023-02-24T19:58:02.778Z,0.70
2023-02-24T20:00:30.313Z,2.53
2023-02-24T20:02:57.085Z,1.02
2023-02-24T20:05:25.019Z,4.38
2023-02-24T20:07:55.344Z,0.17
2023-02-24T20:10:26.966Z,0.98
2023-02-24T20:12:59.042Z,2.40
2023-02-24T20:15:27.017Z,3.22
2023-02-24T20:17:53.686Z,0.20
2023-02-24T20:20:20.781Z,0.17
2023-02-24T20:22:48.163Z,0.28
2023-02-24T20:25:15.790Z,3.85
2023-02-24T20:27:42.821Z,0.85
2023-02-24T20:30:13.243Z,1.70
2023-02-24T20:32:42.408Z,0.68
2023-02-24T20:35:10.476Z,12.23
2023-02-24T20:37:37.573Z,0.47
2023-02-24T20:40:05.170Z,2.78
2023-02-24T20:42:32.057Z,1.10
2023-02-24T20:44:59.101Z,0.95
2023-02-24T20:47:26.015Z,2.72
2023-02-24T20:49:53.016Z,1.45
2023-02-24T20:52:19.786Z,6.75
2023-02-24T20:54:47.153Z,2.58
2023-02-24T20:57:14.549Z,4.75
2023-02-24T20:59:49.294Z,0.70
2023-02-24T21:02:21.528Z,4.28
2023-02-24T21:04:49.060Z,3.75
2023-02-24T21:07:16.115Z,1.60
2023-02-24T21:09:43.418Z,3.83
2023-02-24T21:12:10.541Z,0.88
2023-02-24T21:14:37.325Z,0.10
2023-02-24T21:17:04.489Z,0.88
2023-02-24T21:19:31.377Z,1.13
2023-02-24T21:21:58.775Z,8.38
2023-02-24T21:24:25.511Z,1.40
2023-02-24T21:26:52.409Z,1.05
2023-02-24T21:29:19.106Z,3.13
2023-02-24T21:31:46.348Z,2.47
2023-02-24T21:34:16.675Z,0.40
2023-02-24T21:36:43.647Z,0.80
2023-02-24T21:39:14.601Z,2.05
2023-02-24T21:41:45.121Z,0.32
2023-02-24T21:44:14.230Z,1.75
2023-02-24T21:46:42.049Z,0.17
2023-02-24T21:49:14.896Z,5.97
2023-02-24T21:51:43.023Z,1.20
2023-02-24T21:54:12.458Z,0.47
2023-02-24T21:56:39.464Z,4.57
2023-02-24T21:59:08.992Z,4.95
2023-02-24T22:01:40.898Z,1.02
2023-02-24T22:04:10.260Z,0.57
2023-02-24T22:06:38.258Z,2.17
2023-02-24T22:09:06.905Z,0.88
2023-02-24T22:11:37.293Z,1.05
2023-02-24T22:14:07.164Z,2.00
2023-02-24T22:16:34.092Z,0.13
2023-02-24T22:19:01.035Z,3.58
2023-02-24T22:21:29.028Z,1.30
2023-02-24T22:24:01.260Z,0.32
2023-02-24T22:26:30.144Z,1.92
2023-02-24T22:28:56.911Z,0.63
2023-02-24T22:31:26.537Z,0.93
2023-02-24T22:33:53.383Z,0.85
2023-02-24T22:36:24.661Z,0.40
2023-02-24T22:38:51.688Z,1.23
2023-02-24T22:41:21.043Z,0.65
2023-02-24T22:43:48.288Z,7.32
2023-02-24T22:46:21.454Z,0.17
2023-02-24T22:48:48.529Z,0.65
2023-02-24T22:51:15.208Z,0.35
2023-02-24T22:53:44.278Z,3.70
2023-02-24T22:56:12.139Z,1.40
2023-02-24T22:58:39.151Z,1.40
2023-02-24T23:01:17.277Z,2.58
2023-02-24T23:03:46.262Z,4.03
2023-02-24T23:06:15.862Z,0.40
2023-02-24T23:08:45.964Z,1.65
2023-02-24T23:11:14.227Z,0.47
2023-02-24T23:13:42.387Z,0.38
2023-02-24T23:16:11.626Z,0.10
2023-02-24T23:18:38.526Z,1.23
2023-02-24T23:21:08.679Z,2.20
2023-02-24T23:23:36.998Z,3.45
2023-02-24T23:26:04.800Z,1.80
2023-02-24T23:28:31.693Z,1.45
2023-02-24T23:30:58.421Z,0.85
2023-02-24T23:33:25.225Z,1.75
2023-02-24T23:35:51.926Z,1.80
2023-02-24T23:38:18.748Z,4.22
2023-02-24T23:40:50.776Z,0.82
2023-02-24T23:43:18.457Z,0.55
2023-02-24T23:45:45.372Z,0.98
2023-02-24T23:48:13.862Z,1.55
2023-02-24T23:50:42.136Z,1.02
2023-02-24T23:53:09.182Z,0.30
2023-02-24T23:55:36.377Z,0.90
2023-02-24T23:58:03.640Z,0.57
